KBYY

Bay City Regional Airport

Bay City, Texas, USA
METAR KBYY 110155Z AUTO 00000KT 10SM CLR 07/03 A3040 RMK AO2 T00780042
Observed Flight Rules
Dec-11 @ 01:55 UTC (29 minutes ago) Visual Flight Rules
Visibility Clouds
10 miles
  • Clear skies
Temperatures Readings
Current 8°C / 46°F
Dewpoint 3°C / 37°F
Humidity 71%
Altimeter 30.4" Hg
Pressure 1029 hPa
Elevation 14
METAR KBYY 110155Z AUTO 00000KT 10SM CLR 07/03 A3040 RMK AO2 T00780042
Observed Flight Rules
Dec-11 @ 01:55 UTC
(29 minutes ago)
VFR
Clouds
  • Clear skies
Temperature Dewpoint
8°C / 46°F 3°C / 37°F
Humidity Altimeter Pressure
71% 30.4" Hg 1029 hPa